createdAt,value
2022-07-27T00:01:11.918Z,0.0
2022-07-27T00:06:13.170Z,0.0
2022-07-27T00:11:14.110Z,0.0
2022-07-27T00:16:15.134Z,0.0
2022-07-27T00:21:16.083Z,0.0
2022-07-27T00:26:17.064Z,0.0
2022-07-27T00:31:18.139Z,0.0
2022-07-27T00:36:19.110Z,0.0
2022-07-27T00:41:20.049Z,0.0
2022-07-27T00:46:21.186Z,0.0
2022-07-27T00:51:22.227Z,0.0
2022-07-27T00:56:23.339Z,0.0
2022-07-27T01:01:24.289Z,0.0
2022-07-27T01:06:27.343Z,0.0
2022-07-27T01:11:28.413Z,0.0
2022-07-27T01:16:29.366Z,0.0
2022-07-27T01:21:34.091Z,0.0
2022-07-27T01:26:35.170Z,0.0
2022-07-27T01:31:36.239Z,0.0
2022-07-27T01:36:37.344Z,0.0
2022-07-27T01:41:38.265Z,0.0
2022-07-27T01:46:39.312Z,0.0
2022-07-27T01:51:40.277Z,0.0
2022-07-27T01:56:41.248Z,0.0
2022-07-27T02:01:42.857Z,0.0
2022-07-27T02:06:43.845Z,0.0
2022-07-27T02:11:44.747Z,0.0
2022-07-27T02:16:45.749Z,0.0
2022-07-27T02:21:46.917Z,0.0
2022-07-27T02:26:49.558Z,0.0
2022-07-27T02:31:50.602Z,0.0
2022-07-27T02:36:51.522Z,0.0
2022-07-27T02:41:52.435Z,0.0
2022-07-27T02:46:53.333Z,0.0
2022-07-27T02:51:54.372Z,0.47405
2022-07-27T02:56:55.339Z,1.3463
2022-07-27T03:01:56.514Z,1.71845
2022-07-27T03:06:57.583Z,3.3184
2022-07-27T03:11:58.528Z,2.9036
2022-07-27T03:16:59.479Z,4.0887
2022-07-27T03:22:00.424Z,6.8608
2022-07-27T03:27:11.297Z,9.73785
2022-07-27T03:32:12.273Z,13.77675
2022-07-27T03:37:13.307Z,14.10325
2022-07-27T03:42:14.340Z,24.78675
2022-07-27T03:47:15.413Z,31.3338
2022-07-27T03:52:18.008Z,36.1105
2022-07-27T03:57:19.043Z,43.39535
2022-07-27T04:02:20.056Z,48.67025
2022-07-27T04:07:21.007Z,53.3918
2022-07-27T04:12:21.904Z,61.89365
2022-07-27T04:17:53.653Z,68.97505
2022-07-27T04:22:57.674Z,77.7165
2022-07-27T04:27:58.594Z,84.5583
2022-07-27T04:32:59.565Z,100.03125
2022-07-27T04:38:00.466Z,108.6624
2022-07-27T04:43:01.408Z,123.04765
2022-07-27T04:48:02.407Z,137.02785
2022-07-27T04:53:03.346Z,137.4899
2022-07-27T04:58:09.436Z,138.78025
2022-07-27T05:03:10.457Z,154.8981
2022-07-27T05:08:12.576Z,168.0531
2022-07-27T05:13:13.668Z,145.1835
2022-07-27T05:18:14.705Z,151.73055
2022-07-27T05:23:15.610Z,174.00915
2022-07-27T05:28:16.629Z,161.41325
2022-07-27T05:33:17.626Z,169.49105
2022-07-27T05:38:18.610Z,178.4721
2022-07-27T05:43:19.527Z,219.3593
2022-07-27T05:48:20.447Z,328.8318
2022-07-27T05:53:21.395Z,259.4897
2022-07-27T05:58:23.226Z,245.13875
2022-07-27T06:03:25.949Z,217.6404
2022-07-27T06:08:26.968Z,196.12045
2022-07-27T06:13:28.539Z,345.23075
2022-07-27T06:18:29.531Z,332.076
2022-07-27T06:23:30.457Z,248.05935
2022-07-27T06:28:31.401Z,265.70995
2022-07-27T06:33:32.777Z,300.80465
2022-07-27T06:38:33.711Z,325.81385
2022-07-27T06:43:35.777Z,316.29845
2022-07-27T06:48:37.197Z,319.32195
2022-07-27T06:53:43.211Z,319.0082
2022-07-27T06:58:44.169Z,325.81385
2022-07-27T07:03:45.232Z,301.0271
2022-07-27T07:08:46.173Z,347.94415
2022-07-27T07:13:47.123Z,347.5771
2022-07-27T07:18:52.313Z,377.9145
2022-07-27T07:23:53.771Z,337.19275
2022-07-27T07:28:54.661Z,357.34925
2022-07-27T07:33:55.797Z,355.08255
2022-07-27T07:38:56.750Z,410.53495
2022-07-27T07:43:57.939Z,490.71025
2022-07-27T07:48:58.917Z,504.2209
2022-07-27T07:54:00.182Z,542.00135
2022-07-27T07:59:01.185Z,516.16305
2022-07-27T08:04:02.359Z,380.3135
2022-07-27T08:09:03.278Z,509.13895
2022-07-27T08:14:04.439Z,444.07465
2022-07-27T08:19:05.390Z,458.62205
2022-07-27T08:24:06.412Z,389.03665
2022-07-27T08:29:11.380Z,358.1042
2022-07-27T08:34:14.857Z,476.7422
2022-07-27T08:39:41.717Z,383.0258
2022-07-27T08:45:07.174Z,410.279
2022-07-27T08:50:08.117Z,412.60455
2022-07-27T08:55:09.158Z,328.58185
2022-07-27T09:00:10.075Z,528.3312
2022-07-27T09:05:11.045Z,628.8778
2022-07-27T09:15:12.458Z,510.4108
2022-07-27T09:20:18.014Z,473.6691
2022-07-27T09:25:38.425Z,441.8714
2022-07-27T09:30:53.668Z,703.675
2022-07-27T09:40:55.145Z,441.0233
2022-07-27T09:45:56.426Z,667.4132
2022-07-27T09:51:02.140Z,647.10775
2022-07-27T09:56:04.341Z,590.0747
2022-07-27T10:01:05.260Z,499.1501
2022-07-27T10:06:06.200Z,395.98135
2022-07-27T10:11:07.345Z,232.36395
2022-07-27T10:16:08.366Z,296.82275
2022-07-27T10:21:09.376Z,486.32405
2022-07-27T10:26:10.356Z,497.446
2022-07-27T10:31:11.304Z,600.3957
2022-07-27T10:36:16.443Z,684.2355
2022-07-27T10:41:17.868Z,672.20455
2022-07-27T10:46:18.828Z,481.1106
2022-07-27T10:51:20.073Z,698.99885
2022-07-27T10:56:26.095Z,905.98315
2022-07-27T11:01:27.116Z,479.8301
2022-07-27T11:06:33.422Z,538.41525
2022-07-27T11:11:38.888Z,556.4436
2022-07-27T11:16:54.154Z,467.4205
2022-07-27T11:21:57.896Z,871.1948
2022-07-27T11:26:58.913Z,586.82225
2022-07-27T11:32:00.129Z,406.799
2022-07-27T11:37:01.228Z,560.7374
2022-07-27T11:42:08.689Z,608.4817
2022-07-27T11:47:13.173Z,519.95865
2022-07-27T11:52:14.088Z,489.7561
2022-07-27T11:57:15.036Z,599.18875
2022-07-27T12:02:16.035Z,547.4786
2022-07-27T12:07:17.338Z,472.6574
2022-07-27T12:12:18.772Z,416.7366
2022-07-27T12:17:19.923Z,341.6214
2022-07-27T12:27:21.529Z,464.9675
2022-07-27T12:32:22.431Z,452.9801
2022-07-27T12:37:23.325Z,539.6948
2022-07-27T12:42:24.292Z,590.2077
2022-07-27T12:47:27.825Z,515.739
2022-07-27T12:52:29.128Z,538.0366
2022-07-27T12:57:54.102Z,504.87915
2022-07-27T13:02:56.709Z,448.08755
2022-07-27T13:07:57.637Z,359.5455
2022-07-27T13:12:58.587Z,468.2802
2022-07-27T13:17:59.500Z,355.37915
2022-07-27T13:23:00.442Z,509.54
2022-07-27T13:28:01.410Z,524.24085
2022-07-27T13:33:02.336Z,487.44955
2022-07-27T13:38:03.241Z,1152.96805
2022-07-27T13:43:09.295Z,1011.8768
2022-07-27T13:48:13.372Z,497.09425
2022-07-27T13:53:15.310Z,1242.5676
2022-07-27T13:58:16.671Z,387.18845
2022-07-27T14:03:17.592Z,343.1313
2022-07-27T14:08:20.345Z,380.47595
2022-07-27T14:13:21.300Z,402.92185
2022-07-27T14:18:22.600Z,648.57965
2022-07-27T14:23:23.544Z,1367.23685
2022-07-27T14:28:24.505Z,434.809
2022-07-27T14:33:26.100Z,482.44485
2022-07-27T14:38:34.331Z,338.4269
2022-07-27T14:43:35.290Z,380.07275
2022-07-27T14:49:04.715Z,416.99335
2022-07-27T14:54:06.969Z,382.9271
2022-07-27T14:59:07.914Z,452.32805
2022-07-27T15:04:08.845Z,322.4539
2022-07-27T15:09:09.965Z,290.291
2022-07-27T15:14:11.063Z,319.74415
2022-07-27T15:19:12.402Z,288.55865
2022-07-27T15:24:13.546Z,303.23865
2022-07-27T15:29:15.644Z,281.3461
2022-07-27T15:39:17.413Z,324.01895
2022-07-27T15:44:18.368Z,322.20085
2022-07-27T15:49:19.724Z,374.27325
2022-07-27T15:54:20.929Z,808.68285
2022-07-27T15:59:21.869Z,390.1378
2022-07-27T16:04:22.945Z,314.7677
2022-07-27T16:09:23.868Z,341.18995
2022-07-27T16:14:24.845Z,539.2409
2022-07-27T16:19:25.783Z,701.07205
2022-07-27T16:24:26.783Z,334.78935
2022-07-27T16:29:27.699Z,639.8002
2022-07-27T16:34:28.660Z,622.37875
2022-07-27T16:39:29.584Z,320.8785
2022-07-27T16:44:30.535Z,522.9451
2022-07-27T16:49:33.508Z,279.29815
2022-07-27T16:54:39.764Z,295.3036
2022-07-27T16:59:40.905Z,270.22395
2022-07-27T17:04:41.927Z,280.3803
2022-07-27T17:09:42.922Z,371.6025
2022-07-27T17:14:43.854Z,220.6069
2022-07-27T17:19:44.847Z,199.7849
2022-07-27T17:29:47.140Z,202.5762
2022-07-27T17:34:48.143Z,174.81555
2022-07-27T17:39:49.090Z,169.66995
2022-07-27T17:44:50.047Z,153.7711
2022-07-27T17:49:51.080Z,154.95775
2022-07-27T17:54:57.085Z,121.37045
2022-07-27T17:59:58.121Z,108.7917
2022-07-27T18:04:59.064Z,91.3088
2022-07-27T18:10:00.191Z,81.71925
2022-07-27T18:15:01.160Z,85.80445
2022-07-27T18:20:02.108Z,68.0273
2022-07-27T18:26:04.935Z,46.517
2022-07-27T18:31:05.984Z,44.54005
2022-07-27T18:36:07.673Z,40.7959
2022-07-27T18:41:08.958Z,36.31395
2022-07-27T18:46:10.011Z,31.2235
2022-07-27T18:51:11.059Z,25.3401
2022-07-27T18:56:17.186Z,20.5634
2022-07-27T19:01:19.044Z,16.1556
2022-07-27T19:06:20.172Z,10.95485
2022-07-27T19:11:22.644Z,4.4443
2022-07-27T19:16:23.891Z,3.4304
2022-07-27T19:21:24.904Z,2.01475
2022-07-27T19:26:25.893Z,0.9481
2022-07-27T19:31:26.844Z,0.47405
2022-07-27T19:36:27.773Z,0.0
2022-07-27T19:41:28.704Z,0.4148
2022-07-27T19:46:29.786Z,0.0
2022-07-27T19:51:30.851Z,0.0
2022-07-27T19:56:37.050Z,0.0
2022-07-27T20:01:38.426Z,0.0
2022-07-27T20:06:39.442Z,0.0
2022-07-27T20:11:40.370Z,0.0
2022-07-27T20:16:41.351Z,0.0
2022-07-27T20:21:42.780Z,0.0
2022-07-27T20:26:48.628Z,0.0
2022-07-27T20:31:50.104Z,0.0
2022-07-27T20:36:53.515Z,0.0
2022-07-27T20:41:54.444Z,0.0
2022-07-27T20:46:55.388Z,0.0
2022-07-27T20:51:56.307Z,0.0
2022-07-27T20:56:57.474Z,0.0
2022-07-27T21:01:58.434Z,0.0
2022-07-27T21:07:00.022Z,0.0
2022-07-27T21:12:01.034Z,0.0
2022-07-27T21:17:02.427Z,0.0
2022-07-27T21:22:03.404Z,0.0
2022-07-27T21:27:04.947Z,0.0
2022-07-27T21:32:05.977Z,0.0
2022-07-27T21:37:06.882Z,0.0
2022-07-27T21:42:07.870Z,0.0
2022-07-27T21:47:13.764Z,0.0
2022-07-27T21:52:15.641Z,0.0
2022-07-27T21:57:16.582Z,0.0
2022-07-27T22:02:17.478Z,0.0
2022-07-27T22:07:19.327Z,0.0
2022-07-27T22:12:20.606Z,0.0
2022-07-27T22:17:21.528Z,0.0
2022-07-27T22:22:22.448Z,0.0
2022-07-27T22:27:23.518Z,0.0
2022-07-27T22:32:24.567Z,0.0
2022-07-27T22:42:25.980Z,0.0
2022-07-27T22:47:26.991Z,0.0
2022-07-27T22:52:27.912Z,0.0
2022-07-27T22:57:28.843Z,0.0
2022-07-27T23:02:29.753Z,0.0
2022-07-27T23:07:33.251Z,0.0
2022-07-27T23:12:34.637Z,0.0
2022-07-27T23:17:35.593Z,0.0
2022-07-27T23:22:41.659Z,0.0
2022-07-27T23:27:42.976Z,0.0
2022-07-27T23:32:43.903Z,0.0
2022-07-27T23:37:44.802Z,0.0
2022-07-27T23:42:45.798Z,0.0
2022-07-27T23:47:46.712Z,0.0
2022-07-27T23:52:48.310Z,0.0
